sensor_id;sensor_type;location;lat;lon;timestamp;P1;durP1;ratioP1;P2;durP2;ratioP2
36001;SDS011;22070;50.922;5.430;2022-08-21T00:02:33;8.02;;;5.47;;
36001;SDS011;22070;50.922;5.430;2022-08-21T00:04:59;7.22;;;5.05;;
36001;SDS011;22070;50.922;5.430;2022-08-21T00:07:25;9.50;;;5.32;;
36001;SDS011;22070;50.922;5.430;2022-08-21T00:09:51;9.45;;;5.45;;
36001;SDS011;22070;50.922;5.430;2022-08-21T00:12:17;8.87;;;5.77;;
36001;SDS011;22070;50.922;5.430;2022-08-21T00:14:42;8.00;;;6.15;;
36001;SDS011;22070;50.922;5.430;2022-08-21T00:17:08;5.40;;;4.85;;
36001;SDS011;22070;50.922;5.430;2022-08-21T00:19:34;10.13;;;5.05;;
36001;SDS011;22070;50.922;5.430;2022-08-21T00:22:00;10.80;;;5.30;;
36001;SDS011;22070;50.922;5.430;2022-08-21T00:24:26;9.98;;;5.47;;
36001;SDS011;22070;50.922;5.430;2022-08-21T00:26:52;7.50;;;5.63;;
36001;SDS011;22070;50.922;5.430;2022-08-21T00:29:18;10.33;;;5.53;;
36001;SDS011;22070;50.922;5.430;2022-08-21T00:31:44;6.63;;;5.25;;
36001;SDS011;22070;50.922;5.430;2022-08-21T00:34:11;7.85;;;5.25;;
36001;SDS011;22070;50.922;5.430;2022-08-21T00:36:37;8.73;;;5.25;;
36001;SDS011;22070;50.922;5.430;2022-08-21T00:39:04;11.07;;;6.00;;
36001;SDS011;22070;50.922;5.430;2022-08-21T00:41:31;12.38;;;6.28;;
36001;SDS011;22070;50.922;5.430;2022-08-21T00:43:57;6.30;;;4.47;;
36001;SDS011;22070;50.922;5.430;2022-08-21T00:46:23;9.07;;;5.90;;
36001;SDS011;22070;50.922;5.430;2022-08-21T00:48:49;16.60;;;6.07;;
36001;SDS011;22070;50.922;5.430;2022-08-21T00:51:16;9.35;;;5.72;;
36001;SDS011;22070;50.922;5.430;2022-08-21T00:53:48;7.10;;;5.10;;
36001;SDS011;22070;50.922;5.430;2022-08-21T00:56:19;9.95;;;5.05;;
36001;SDS011;22070;50.922;5.430;2022-08-21T00:58:48;8.57;;;5.03;;
36001;SDS011;22070;50.922;5.430;2022-08-21T01:01:14;7.20;;;5.20;;
36001;SDS011;22070;50.922;5.430;2022-08-21T01:03:39;9.68;;;5.80;;
36001;SDS011;22070;50.922;5.430;2022-08-21T01:06:05;8.88;;;5.55;;
36001;SDS011;22070;50.922;5.430;2022-08-21T01:08:32;12.30;;;5.38;;
36001;SDS011;22070;50.922;5.430;2022-08-21T01:10:58;7.22;;;5.40;;
36001;SDS011;22070;50.922;5.430;2022-08-21T01:13:25;9.68;;;5.50;;
36001;SDS011;22070;50.922;5.430;2022-08-21T01:15:52;10.30;;;5.45;;
36001;SDS011;22070;50.922;5.430;2022-08-21T01:18:20;9.07;;;5.50;;
36001;SDS011;22070;50.922;5.430;2022-08-21T01:23:31;8.55;;;5.40;;
36001;SDS011;22070;50.922;5.430;2022-08-21T01:25:57;6.78;;;5.07;;
36001;SDS011;22070;50.922;5.430;2022-08-21T01:28:23;13.15;;;4.95;;
36001;SDS011;22070;50.922;5.430;2022-08-21T01:30:50;5.15;;;4.10;;
36001;SDS011;22070;50.922;5.430;2022-08-21T01:33:18;7.45;;;4.88;;
36001;SDS011;22070;50.922;5.430;2022-08-21T01:35:47;6.85;;;4.63;;
36001;SDS011;22070;50.922;5.430;2022-08-21T01:38:12;8.07;;;4.75;;
36001;SDS011;22070;50.922;5.430;2022-08-21T01:40:38;7.55;;;5.10;;
36001;SDS011;22070;50.922;5.430;2022-08-21T01:43:04;5.95;;;5.00;;
36001;SDS011;22070;50.922;5.430;2022-08-21T01:45:30;6.38;;;4.75;;
36001;SDS011;22070;50.922;5.430;2022-08-21T01:47:56;6.32;;;5.15;;
36001;SDS011;22070;50.922;5.430;2022-08-21T01:50:21;7.38;;;4.63;;
36001;SDS011;22070;50.922;5.430;2022-08-21T01:52:47;8.88;;;5.22;;
36001;SDS011;22070;50.922;5.430;2022-08-21T01:55:14;7.70;;;4.70;;
36001;SDS011;22070;50.922;5.430;2022-08-21T01:57:41;7.25;;;4.68;;
36001;SDS011;22070;50.922;5.430;2022-08-21T02:00:09;9.82;;;4.80;;
36001;SDS011;22070;50.922;5.430;2022-08-21T02:02:38;5.30;;;4.43;;
36001;SDS011;22070;50.922;5.430;2022-08-21T02:05:05;5.45;;;4.00;;
36001;SDS011;22070;50.922;5.430;2022-08-21T02:07:37;6.20;;;4.85;;
36001;SDS011;22070;50.922;5.430;2022-08-21T02:10:12;7.22;;;4.18;;
36001;SDS011;22070;50.922;5.430;2022-08-21T02:12:39;8.43;;;4.65;;
36001;SDS011;22070;50.922;5.430;2022-08-21T02:15:05;11.38;;;4.40;;
36001;SDS011;22070;50.922;5.430;2022-08-21T02:17:42;6.38;;;4.47;;
36001;SDS011;22070;50.922;5.430;2022-08-21T02:20:11;11.60;;;5.10;;
36001;SDS011;22070;50.922;5.430;2022-08-21T02:22:41;6.70;;;4.53;;
36001;SDS011;22070;50.922;5.430;2022-08-21T02:25:07;5.45;;;4.63;;
36001;SDS011;22070;50.922;5.430;2022-08-21T02:27:40;6.07;;;4.85;;
36001;SDS011;22070;50.922;5.430;2022-08-21T02:30:08;7.57;;;4.40;;
36001;SDS011;22070;50.922;5.430;2022-08-21T02:32:39;3.88;;;3.47;;
36001;SDS011;22070;50.922;5.430;2022-08-21T02:35:05;7.72;;;4.65;;
36001;SDS011;22070;50.922;5.430;2022-08-21T02:37:32;9.60;;;4.38;;
36001;SDS011;22070;50.922;5.430;2022-08-21T02:39:59;8.75;;;4.28;;
36001;SDS011;22070;50.922;5.430;2022-08-21T02:42:26;5.20;;;4.03;;
36001;SDS011;22070;50.922;5.430;2022-08-21T02:44:51;8.25;;;4.30;;
36001;SDS011;22070;50.922;5.430;2022-08-21T02:47:17;9.23;;;4.65;;
36001;SDS011;22070;50.922;5.430;2022-08-21T02:49:43;7.07;;;3.70;;
36001;SDS011;22070;50.922;5.430;2022-08-21T02:52:08;6.82;;;4.15;;
36001;SDS011;22070;50.922;5.430;2022-08-21T02:54:34;5.90;;;3.85;;
36001;SDS011;22070;50.922;5.430;2022-08-21T02:57:00;8.73;;;4.10;;
36001;SDS011;22070;50.922;5.430;2022-08-21T02:59:26;5.50;;;3.90;;
36001;SDS011;22070;50.922;5.430;2022-08-21T03:01:52;9.00;;;4.07;;
36001;SDS011;22070;50.922;5.430;2022-08-21T03:04:18;5.65;;;4.20;;
36001;SDS011;22070;50.922;5.430;2022-08-21T03:06:44;6.35;;;3.95;;
36001;SDS011;22070;50.922;5.430;2022-08-21T03:09:10;7.25;;;4.28;;
36001;SDS011;22070;50.922;5.430;2022-08-21T03:11:36;5.25;;;4.03;;
36001;SDS011;22070;50.922;5.430;2022-08-21T03:14:01;4.43;;;3.95;;
36001;SDS011;22070;50.922;5.430;2022-08-21T03:16:27;8.38;;;4.32;;
36001;SDS011;22070;50.922;5.430;2022-08-21T03:18:53;8.18;;;4.05;;
36001;SDS011;22070;50.922;5.430;2022-08-21T03:21:18;4.97;;;4.47;;
36001;SDS011;22070;50.922;5.430;2022-08-21T03:23:44;6.65;;;4.35;;
36001;SDS011;22070;50.922;5.430;2022-08-21T03:26:10;6.57;;;4.20;;
36001;SDS011;22070;50.922;5.430;2022-08-21T03:28:36;8.82;;;4.22;;
36001;SDS011;22070;50.922;5.430;2022-08-21T03:31:02;6.82;;;4.22;;
36001;SDS011;22070;50.922;5.430;2022-08-21T03:33:28;9.05;;;4.35;;
36001;SDS011;22070;50.922;5.430;2022-08-21T03:35:58;5.35;;;3.92;;
36001;SDS011;22070;50.922;5.430;2022-08-21T03:38:31;8.73;;;5.10;;
36001;SDS011;22070;50.922;5.430;2022-08-21T03:41:00;8.52;;;4.28;;
36001;SDS011;22070;50.922;5.430;2022-08-21T03:43:26;9.10;;;4.38;;
36001;SDS011;22070;50.922;5.430;2022-08-21T03:45:53;10.45;;;4.05;;
36001;SDS011;22070;50.922;5.430;2022-08-21T03:48:19;5.53;;;4.20;;
36001;SDS011;22070;50.922;5.430;2022-08-21T03:50:45;13.65;;;4.53;;
36001;SDS011;22070;50.922;5.430;2022-08-21T03:53:12;7.10;;;4.03;;
36001;SDS011;22070;50.922;5.430;2022-08-21T03:55:39;7.57;;;4.35;;
36001;SDS011;22070;50.922;5.430;2022-08-21T03:58:05;6.15;;;4.30;;
36001;SDS011;22070;50.922;5.430;2022-08-21T04:00:31;5.78;;;4.00;;
36001;SDS011;22070;50.922;5.430;2022-08-21T04:02:56;6.27;;;4.43;;
36001;SDS011;22070;50.922;5.430;2022-08-21T04:05:22;7.13;;;4.38;;
36001;SDS011;22070;50.922;5.430;2022-08-21T04:07:58;7.32;;;4.60;;
36001;SDS011;22070;50.922;5.430;2022-08-21T04:10:26;5.32;;;4.50;;
36001;SDS011;22070;50.922;5.430;2022-08-21T04:12:55;10.45;;;4.63;;
36001;SDS011;22070;50.922;5.430;2022-08-21T04:15:22;8.00;;;4.78;;
36001;SDS011;22070;50.922;5.430;2022-08-21T04:17:49;9.70;;;4.50;;
36001;SDS011;22070;50.922;5.430;2022-08-21T04:20:16;5.30;;;3.33;;
36001;SDS011;22070;50.922;5.430;2022-08-21T04:22:42;9.40;;;4.57;;
36001;SDS011;22070;50.922;5.430;2022-08-21T04:25:09;8.60;;;4.53;;
36001;SDS011;22070;50.922;5.430;2022-08-21T04:27:35;10.27;;;4.47;;
36001;SDS011;22070;50.922;5.430;2022-08-21T04:30:01;10.13;;;4.90;;
36001;SDS011;22070;50.922;5.430;2022-08-21T04:32:28;6.88;;;4.28;;
36001;SDS011;22070;50.922;5.430;2022-08-21T04:35:06;7.22;;;4.43;;
36001;SDS011;22070;50.922;5.430;2022-08-21T04:37:34;8.25;;;4.10;;
36001;SDS011;22070;50.922;5.430;2022-08-21T04:39:59;6.90;;;3.90;;
36001;SDS011;22070;50.922;5.430;2022-08-21T04:42:26;6.65;;;3.90;;
36001;SDS011;22070;50.922;5.430;2022-08-21T04:47:19;6.30;;;3.42;;
36001;SDS011;22070;50.922;5.430;2022-08-21T04:49:44;7.25;;;3.75;;
36001;SDS011;22070;50.922;5.430;2022-08-21T04:52:11;7.00;;;3.67;;
36001;SDS011;22070;50.922;5.430;2022-08-21T04:54:40;7.05;;;3.92;;
36001;SDS011;22070;50.922;5.430;2022-08-21T04:57:10;7.38;;;3.90;;
36001;SDS011;22070;50.922;5.430;2022-08-21T04:59:43;9.17;;;4.17;;
36001;SDS011;22070;50.922;5.430;2022-08-21T05:02:12;6.13;;;3.88;;
36001;SDS011;22070;50.922;5.430;2022-08-21T05:04:43;8.13;;;3.93;;
36001;SDS011;22070;50.922;5.430;2022-08-21T05:07:15;6.63;;;3.67;;
36001;SDS011;22070;50.922;5.430;2022-08-21T05:09:44;10.15;;;4.00;;
36001;SDS011;22070;50.922;5.430;2022-08-21T05:12:10;10.15;;;3.63;;
36001;SDS011;22070;50.922;5.430;2022-08-21T05:14:36;10.07;;;3.90;;
36001;SDS011;22070;50.922;5.430;2022-08-21T05:17:02;6.63;;;3.40;;
36001;SDS011;22070;50.922;5.430;2022-08-21T05:19:28;6.13;;;3.75;;
36001;SDS011;22070;50.922;5.430;2022-08-21T05:21:54;5.13;;;3.90;;
36001;SDS011;22070;50.922;5.430;2022-08-21T05:24:20;9.05;;;2.95;;
36001;SDS011;22070;50.922;5.430;2022-08-21T05:26:45;9.18;;;4.00;;
36001;SDS011;22070;50.922;5.430;2022-08-21T05:29:11;11.48;;;4.05;;
36001;SDS011;22070;50.922;5.430;2022-08-21T05:31:37;5.88;;;3.92;;
36001;SDS011;22070;50.922;5.430;2022-08-21T05:34:03;17.77;;;3.63;;
36001;SDS011;22070;50.922;5.430;2022-08-21T05:36:29;10.85;;;3.60;;
36001;SDS011;22070;50.922;5.430;2022-08-21T05:38:55;6.68;;;4.03;;
36001;SDS011;22070;50.922;5.430;2022-08-21T05:41:21;12.23;;;4.22;;
36001;SDS011;22070;50.922;5.430;2022-08-21T05:43:47;10.73;;;4.50;;
36001;SDS011;22070;50.922;5.430;2022-08-21T05:46:13;6.43;;;3.90;;
36001;SDS011;22070;50.922;5.430;2022-08-21T05:51:06;8.37;;;4.03;;
36001;SDS011;22070;50.922;5.430;2022-08-21T05:53:33;5.53;;;3.40;;
36001;SDS011;22070;50.922;5.430;2022-08-21T05:55:59;7.57;;;3.42;;
36001;SDS011;22070;50.922;5.430;2022-08-21T05:58:25;7.68;;;3.58;;
36001;SDS011;22070;50.922;5.430;2022-08-21T06:00:51;10.40;;;3.60;;
36001;SDS011;22070;50.922;5.430;2022-08-21T06:03:18;9.98;;;3.35;;
36001;SDS011;22070;50.922;5.430;2022-08-21T06:05:46;10.85;;;3.55;;
36001;SDS011;22070;50.922;5.430;2022-08-21T06:08:12;6.22;;;3.03;;
36001;SDS011;22070;50.922;5.430;2022-08-21T06:10:39;9.35;;;3.63;;
36001;SDS011;22070;50.922;5.430;2022-08-21T06:13:04;8.07;;;2.75;;
36001;SDS011;22070;50.922;5.430;2022-08-21T06:15:30;11.18;;;3.03;;
36001;SDS011;22070;50.922;5.430;2022-08-21T06:17:56;13.73;;;3.25;;
36001;SDS011;22070;50.922;5.430;2022-08-21T06:20:21;12.05;;;2.83;;
36001;SDS011;22070;50.922;5.430;2022-08-21T06:22:48;8.23;;;2.83;;
36001;SDS011;22070;50.922;5.430;2022-08-21T06:25:13;10.10;;;2.57;;
36001;SDS011;22070;50.922;5.430;2022-08-21T06:27:39;8.20;;;2.83;;
36001;SDS011;22070;50.922;5.430;2022-08-21T06:30:05;8.32;;;2.90;;
36001;SDS011;22070;50.922;5.430;2022-08-21T06:32:31;5.85;;;2.70;;
36001;SDS011;22070;50.922;5.430;2022-08-21T06:34:57;5.97;;;2.38;;
36001;SDS011;22070;50.922;5.430;2022-08-21T06:37:23;9.48;;;2.60;;
36001;SDS011;22070;50.922;5.430;2022-08-21T06:39:48;10.65;;;2.60;;
36001;SDS011;22070;50.922;5.430;2022-08-21T06:42:15;6.20;;;2.33;;
36001;SDS011;22070;50.922;5.430;2022-08-21T06:44:41;7.50;;;2.72;;
36001;SDS011;22070;50.922;5.430;2022-08-21T06:47:07;7.80;;;2.85;;
36001;SDS011;22070;50.922;5.430;2022-08-21T06:49:33;9.93;;;2.88;;
36001;SDS011;22070;50.922;5.430;2022-08-21T06:51:59;9.27;;;2.33;;
36001;SDS011;22070;50.922;5.430;2022-08-21T06:54:25;9.40;;;3.25;;
36001;SDS011;22070;50.922;5.430;2022-08-21T06:56:51;6.80;;;2.22;;
36001;SDS011;22070;50.922;5.430;2022-08-21T06:59:16;5.07;;;2.60;;
36001;SDS011;22070;50.922;5.430;2022-08-21T07:01:42;10.63;;;2.53;;
36001;SDS011;22070;50.922;5.430;2022-08-21T07:04:08;3.95;;;2.35;;
36001;SDS011;22070;50.922;5.430;2022-08-21T07:06:33;9.23;;;3.00;;
36001;SDS011;22070;50.922;5.430;2022-08-21T07:08:59;8.07;;;2.70;;
36001;SDS011;22070;50.922;5.430;2022-08-21T07:11:26;8.05;;;2.33;;
36001;SDS011;22070;50.922;5.430;2022-08-21T07:13:51;5.37;;;2.03;;
36001;SDS011;22070;50.922;5.430;2022-08-21T07:16:19;6.68;;;2.30;;
36001;SDS011;22070;50.922;5.430;2022-08-21T07:18:45;7.28;;;2.00;;
36001;SDS011;22070;50.922;5.430;2022-08-21T07:21:11;7.07;;;1.70;;
36001;SDS011;22070;50.922;5.430;2022-08-21T07:23:38;9.30;;;2.27;;
36001;SDS011;22070;50.922;5.430;2022-08-21T07:26:07;9.65;;;2.17;;
36001;SDS011;22070;50.922;5.430;2022-08-21T07:28:33;4.07;;;2.30;;
36001;SDS011;22070;50.922;5.430;2022-08-21T07:30:59;6.60;;;2.40;;
36001;SDS011;22070;50.922;5.430;2022-08-21T07:33:27;7.63;;;1.90;;
36001;SDS011;22070;50.922;5.430;2022-08-21T07:35:54;9.30;;;2.03;;
36001;SDS011;22070;50.922;5.430;2022-08-21T07:38:20;7.13;;;1.97;;
36001;SDS011;22070;50.922;5.430;2022-08-21T07:40:46;6.22;;;1.85;;
36001;SDS011;22070;50.922;5.430;2022-08-21T07:43:14;5.22;;;1.88;;
36001;SDS011;22070;50.922;5.430;2022-08-21T07:45:42;7.40;;;1.95;;
36001;SDS011;22070;50.922;5.430;2022-08-21T07:48:08;9.07;;;1.92;;
36001;SDS011;22070;50.922;5.430;2022-08-21T07:50:34;7.03;;;2.10;;
36001;SDS011;22070;50.922;5.430;2022-08-21T07:53:00;5.37;;;1.90;;
36001;SDS011;22070;50.922;5.430;2022-08-21T07:55:27;4.57;;;1.55;;
36001;SDS011;22070;50.922;5.430;2022-08-21T07:57:53;5.27;;;2.27;;
36001;SDS011;22070;50.922;5.430;2022-08-21T08:00:19;7.78;;;1.67;;
36001;SDS011;22070;50.922;5.430;2022-08-21T08:02:46;10.30;;;1.80;;
36001;SDS011;22070;50.922;5.430;2022-08-21T08:05:17;5.32;;;1.38;;
36001;SDS011;22070;50.922;5.430;2022-08-21T08:07:44;6.60;;;1.52;;
36001;SDS011;22070;50.922;5.430;2022-08-21T08:10:10;8.75;;;2.15;;
36001;SDS011;22070;50.922;5.430;2022-08-21T08:12:37;4.68;;;1.50;;
36001;SDS011;22070;50.922;5.430;2022-08-21T08:15:05;4.65;;;1.48;;
36001;SDS011;22070;50.922;5.430;2022-08-21T08:17:34;6.82;;;1.80;;
36001;SDS011;22070;50.922;5.430;2022-08-21T08:20:00;3.40;;;1.40;;
36001;SDS011;22070;50.922;5.430;2022-08-21T08:22:26;7.60;;;1.70;;
36001;SDS011;22070;50.922;5.430;2022-08-21T08:24:52;4.60;;;1.38;;
36001;SDS011;22070;50.922;5.430;2022-08-21T08:27:18;5.60;;;1.20;;
36001;SDS011;22070;50.922;5.430;2022-08-21T08:29:44;2.80;;;1.38;;
36001;SDS011;22070;50.922;5.430;2022-08-21T08:32:10;3.97;;;1.47;;
36001;SDS011;22070;50.922;5.430;2022-08-21T08:34:36;3.17;;;1.00;;
36001;SDS011;22070;50.922;5.430;2022-08-21T08:39:29;5.30;;;1.23;;
36001;SDS011;22070;50.922;5.430;2022-08-21T08:42:14;2.40;;;0.93;;
36001;SDS011;22070;50.922;5.430;2022-08-21T08:45:02;5.72;;;1.50;;
36001;SDS011;22070;50.922;5.430;2022-08-21T08:47:31;4.90;;;1.15;;
36001;SDS011;22070;50.922;5.430;2022-08-21T08:50:11;7.07;;;1.27;;
36001;SDS011;22070;50.922;5.430;2022-08-21T08:52:51;5.57;;;1.50;;
36001;SDS011;22070;50.922;5.430;2022-08-21T08:55:44;4.18;;;1.40;;
36001;SDS011;22070;50.922;5.430;2022-08-21T08:58:15;4.65;;;1.73;;
36001;SDS011;22070;50.922;5.430;2022-08-21T09:00:49;5.13;;;1.50;;
36001;SDS011;22070;50.922;5.430;2022-08-21T09:03:17;2.28;;;1.05;;
36001;SDS011;22070;50.922;5.430;2022-08-21T09:08:34;5.15;;;1.40;;
36001;SDS011;22070;50.922;5.430;2022-08-21T09:22:03;4.85;;;1.10;;
36001;SDS011;22070;50.922;5.430;2022-08-21T09:27:15;6.55;;;1.67;;
36001;SDS011;22070;50.922;5.430;2022-08-21T09:29:47;5.28;;;1.50;;
36001;SDS011;22070;50.922;5.430;2022-08-21T09:34:59;4.63;;;1.50;;
36001;SDS011;22070;50.922;5.430;2022-08-21T09:37:33;5.85;;;1.10;;
36001;SDS011;22070;50.922;5.430;2022-08-21T09:40:02;5.63;;;1.25;;
36001;SDS011;22070;50.922;5.430;2022-08-21T09:42:40;3.83;;;1.10;;
36001;SDS011;22070;50.922;5.430;2022-08-21T09:45:10;4.93;;;1.20;;
36001;SDS011;22070;50.922;5.430;2022-08-21T09:47:36;5.82;;;1.25;;
36001;SDS011;22070;50.922;5.430;2022-08-21T09:50:09;3.93;;;1.17;;
36001;SDS011;22070;50.922;5.430;2022-08-21T09:52:42;2.78;;;1.13;;
36001;SDS011;22070;50.922;5.430;2022-08-21T09:55:14;5.88;;;1.30;;
36001;SDS011;22070;50.922;5.430;2022-08-21T09:58:04;5.32;;;1.27;;
36001;SDS011;22070;50.922;5.430;2022-08-21T10:03:11;5.20;;;1.30;;
36001;SDS011;22070;50.922;5.430;2022-08-21T10:08:23;4.90;;;1.40;;
36001;SDS011;22070;50.922;5.430;2022-08-21T10:10:51;3.60;;;1.08;;
36001;SDS011;22070;50.922;5.430;2022-08-21T10:13:26;2.83;;;1.10;;
36001;SDS011;22070;50.922;5.430;2022-08-21T10:16:15;3.95;;;1.20;;
36001;SDS011;22070;50.922;5.430;2022-08-21T10:21:35;4.10;;;1.20;;
36001;SDS011;22070;50.922;5.430;2022-08-21T10:27:05;3.25;;;1.05;;
36001;SDS011;22070;50.922;5.430;2022-08-21T10:32:27;2.22;;;1.27;;
36001;SDS011;22070;50.922;5.430;2022-08-21T10:40:44;2.72;;;1.00;;
36001;SDS011;22070;50.922;5.430;2022-08-21T10:54:13;6.65;;;1.20;;
36001;SDS011;22070;50.922;5.430;2022-08-21T10:56:58;3.13;;;0.75;;
36001;SDS011;22070;50.922;5.430;2022-08-21T10:59:33;5.95;;;1.40;;
36001;SDS011;22070;50.922;5.430;2022-08-21T11:02:20;4.80;;;1.10;;
36001;SDS011;22070;50.922;5.430;2022-08-21T11:07:26;3.13;;;0.90;;
36001;SDS011;22070;50.922;5.430;2022-08-21T11:10:02;2.63;;;1.10;;
36001;SDS011;22070;50.922;5.430;2022-08-21T11:12:38;5.85;;;1.20;;
36001;SDS011;22070;50.922;5.430;2022-08-21T11:15:14;8.50;;;1.20;;
36001;SDS011;22070;50.922;5.430;2022-08-21T11:17:52;4.20;;;1.10;;
36001;SDS011;22070;50.922;5.430;2022-08-21T11:20:33;2.90;;;1.20;;
36001;SDS011;22070;50.922;5.430;2022-08-21T11:23:13;3.08;;;1.13;;
36001;SDS011;22070;50.922;5.430;2022-08-21T11:26:00;3.55;;;1.10;;
36001;SDS011;22070;50.922;5.430;2022-08-21T11:28:33;5.82;;;1.33;;
36001;SDS011;22070;50.922;5.430;2022-08-21T11:36:41;5.38;;;1.35;;
36001;SDS011;22070;50.922;5.430;2022-08-21T11:39:23;5.03;;;1.20;;
36001;SDS011;22070;50.922;5.430;2022-08-21T11:44:53;6.88;;;1.40;;
36001;SDS011;22070;50.922;5.430;2022-08-21T11:47:40;5.38;;;1.50;;
36001;SDS011;22070;50.922;5.430;2022-08-21T11:50:18;4.65;;;1.10;;
36001;SDS011;22070;50.922;5.430;2022-08-21T11:52:50;4.78;;;1.50;;
36001;SDS011;22070;50.922;5.430;2022-08-21T11:55:54;6.00;;;1.25;;
36001;SDS011;22070;50.922;5.430;2022-08-21T11:58:41;5.53;;;1.60;;
36001;SDS011;22070;50.922;5.430;2022-08-21T12:01:19;5.57;;;1.50;;
36001;SDS011;22070;50.922;5.430;2022-08-21T12:04:02;7.80;;;1.70;;
36001;SDS011;22070;50.922;5.430;2022-08-21T12:06:33;6.45;;;1.42;;
36001;SDS011;22070;50.922;5.430;2022-08-21T12:09:05;4.35;;;1.40;;
36001;SDS011;22070;50.922;5.430;2022-08-21T12:12:24;4.72;;;1.40;;
36001;SDS011;22070;50.922;5.430;2022-08-21T12:14:44;9.77;;;2.13;;
36001;SDS011;22070;50.922;5.430;2022-08-21T12:17:22;5.38;;;1.65;;
36001;SDS011;22070;50.922;5.430;2022-08-21T12:19:59;8.52;;;1.60;;
36001;SDS011;22070;50.922;5.430;2022-08-21T12:22:37;5.43;;;1.30;;
36001;SDS011;22070;50.922;5.430;2022-08-21T12:25:08;4.95;;;1.30;;
36001;SDS011;22070;50.922;5.430;2022-08-21T12:27:44;4.60;;;1.60;;
36001;SDS011;22070;50.922;5.430;2022-08-21T12:30:21;5.18;;;1.45;;
36001;SDS011;22070;50.922;5.430;2022-08-21T12:36:14;5.97;;;1.67;;
36001;SDS011;22070;50.922;5.430;2022-08-21T12:38:50;6.13;;;1.65;;
36001;SDS011;22070;50.922;5.430;2022-08-21T12:41:30;5.63;;;1.60;;
36001;SDS011;22070;50.922;5.430;2022-08-21T12:44:22;5.75;;;1.45;;
36001;SDS011;22070;50.922;5.430;2022-08-21T12:46:58;4.78;;;1.15;;
36001;SDS011;22070;50.922;5.430;2022-08-21T12:49:30;3.58;;;1.55;;
36001;SDS011;22070;50.922;5.430;2022-08-21T12:52:09;2.58;;;1.05;;
36001;SDS011;22070;50.922;5.430;2022-08-21T12:54:44;3.80;;;1.13;;
36001;SDS011;22070;50.922;5.430;2022-08-21T12:57:24;5.65;;;1.40;;
36001;SDS011;22070;50.922;5.430;2022-08-21T12:59:56;6.60;;;1.60;;
36001;SDS011;22070;50.922;5.430;2022-08-21T13:02:28;5.50;;;1.25;;
36001;SDS011;22070;50.922;5.430;2022-08-21T13:04:56;6.47;;;1.40;;
36001;SDS011;22070;50.922;5.430;2022-08-21T13:07:31;4.30;;;1.52;;
36001;SDS011;22070;50.922;5.430;2022-08-21T13:12:29;8.38;;;1.52;;
36001;SDS011;22070;50.922;5.430;2022-08-21T13:14:57;5.85;;;1.50;;
36001;SDS011;22070;50.922;5.430;2022-08-21T13:17:26;4.95;;;1.80;;
36001;SDS011;22070;50.922;5.430;2022-08-21T13:20:03;5.43;;;1.50;;
36001;SDS011;22070;50.922;5.430;2022-08-21T13:22:42;5.95;;;1.30;;
36001;SDS011;22070;50.922;5.430;2022-08-21T13:25:12;3.97;;;1.67;;
36001;SDS011;22070;50.922;5.430;2022-08-21T13:27:40;5.72;;;1.17;;
36001;SDS011;22070;50.922;5.430;2022-08-21T13:30:11;4.03;;;1.20;;
36001;SDS011;22070;50.922;5.430;2022-08-21T13:32:43;4.18;;;1.42;;
36001;SDS011;22070;50.922;5.430;2022-08-21T13:37:38;4.32;;;1.50;;
36001;SDS011;22070;50.922;5.430;2022-08-21T13:40:06;3.35;;;1.50;;
36001;SDS011;22070;50.922;5.430;2022-08-21T13:42:35;5.03;;;1.30;;
36001;SDS011;22070;50.922;5.430;2022-08-21T13:45:03;7.80;;;1.77;;
36001;SDS011;22070;50.922;5.430;2022-08-21T13:47:36;6.57;;;1.35;;
36001;SDS011;22070;50.922;5.430;2022-08-21T13:50:01;4.13;;;1.48;;
36001;SDS011;22070;50.922;5.430;2022-08-21T13:52:28;6.82;;;1.85;;
36001;SDS011;22070;50.922;5.430;2022-08-21T13:54:55;6.23;;;2.23;;
36001;SDS011;22070;50.922;5.430;2022-08-21T13:57:31;4.82;;;1.70;;
36001;SDS011;22070;50.922;5.430;2022-08-21T14:02:50;5.28;;;1.40;;
36001;SDS011;22070;50.922;5.430;2022-08-21T14:05:21;5.45;;;1.52;;
36001;SDS011;22070;50.922;5.430;2022-08-21T14:07:51;3.92;;;1.38;;
36001;SDS011;22070;50.922;5.430;2022-08-21T14:10:48;4.63;;;1.40;;
36001;SDS011;22070;50.922;5.430;2022-08-21T14:13:26;6.63;;;1.45;;
36001;SDS011;22070;50.922;5.430;2022-08-21T14:16:24;3.58;;;1.15;;
36001;SDS011;22070;50.922;5.430;2022-08-21T14:24:02;4.45;;;1.30;;
36001;SDS011;22070;50.922;5.430;2022-08-21T14:26:30;3.85;;;1.40;;
36001;SDS011;22070;50.922;5.430;2022-08-21T14:28:58;3.58;;;1.17;;
36001;SDS011;22070;50.922;5.430;2022-08-21T14:31:28;5.53;;;1.40;;
36001;SDS011;22070;50.922;5.430;2022-08-21T14:33:55;6.10;;;1.40;;
36001;SDS011;22070;50.922;5.430;2022-08-21T14:36:21;3.53;;;1.57;;
36001;SDS011;22070;50.922;5.430;2022-08-21T14:38:46;8.33;;;1.40;;
36001;SDS011;22070;50.922;5.430;2022-08-21T14:41:15;4.43;;;1.70;;
36001;SDS011;22070;50.922;5.430;2022-08-21T14:43:43;6.90;;;1.40;;
36001;SDS011;22070;50.922;5.430;2022-08-21T14:46:10;5.95;;;1.60;;
36001;SDS011;22070;50.922;5.430;2022-08-21T14:48:39;7.10;;;1.60;;
36001;SDS011;22070;50.922;5.430;2022-08-21T14:51:04;7.07;;;2.20;;
36001;SDS011;22070;50.922;5.430;2022-08-21T14:53:31;6.13;;;1.42;;
36001;SDS011;22070;50.922;5.430;2022-08-21T14:55:56;4.37;;;1.20;;
36001;SDS011;22070;50.922;5.430;2022-08-21T14:58:36;4.47;;;1.70;;
36001;SDS011;22070;50.922;5.430;2022-08-21T15:01:05;6.97;;;1.70;;
36001;SDS011;22070;50.922;5.430;2022-08-21T15:03:32;6.82;;;1.15;;
36001;SDS011;22070;50.922;5.430;2022-08-21T15:05:59;5.35;;;1.58;;
36001;SDS011;22070;50.922;5.430;2022-08-21T15:08:25;3.65;;;1.50;;
36001;SDS011;22070;50.922;5.430;2022-08-21T15:10:51;4.03;;;1.40;;
36001;SDS011;22070;50.922;5.430;2022-08-21T15:13:18;7.68;;;1.63;;
36001;SDS011;22070;50.922;5.430;2022-08-21T15:15:45;3.78;;;1.30;;
36001;SDS011;22070;50.922;5.430;2022-08-21T15:18:12;6.72;;;1.45;;
36001;SDS011;22070;50.922;5.430;2022-08-21T15:20:38;4.25;;;1.20;;
36001;SDS011;22070;50.922;5.430;2022-08-21T15:23:05;6.63;;;1.50;;
36001;SDS011;22070;50.922;5.430;2022-08-21T15:25:31;5.97;;;1.52;;
36001;SDS011;22070;50.922;5.430;2022-08-21T15:27:58;4.45;;;1.83;;
36001;SDS011;22070;50.922;5.430;2022-08-21T15:30:24;3.47;;;1.05;;
36001;SDS011;22070;50.922;5.430;2022-08-21T15:32:50;4.35;;;1.40;;
36001;SDS011;22070;50.922;5.430;2022-08-21T15:35:16;8.02;;;1.60;;
36001;SDS011;22070;50.922;5.430;2022-08-21T15:37:42;8.33;;;1.50;;
36001;SDS011;22070;50.922;5.430;2022-08-21T15:40:08;5.37;;;1.30;;
36001;SDS011;22070;50.922;5.430;2022-08-21T15:42:34;4.10;;;1.20;;
36001;SDS011;22070;50.922;5.430;2022-08-21T15:45:00;6.50;;;1.70;;
36001;SDS011;22070;50.922;5.430;2022-08-21T15:47:30;6.82;;;1.80;;
36001;SDS011;22070;50.922;5.430;2022-08-21T15:49:59;4.55;;;1.10;;
36001;SDS011;22070;50.922;5.430;2022-08-21T15:52:24;4.80;;;1.37;;
36001;SDS011;22070;50.922;5.430;2022-08-21T15:54:51;5.10;;;1.30;;
36001;SDS011;22070;50.922;5.430;2022-08-21T15:57:18;5.00;;;1.90;;
36001;SDS011;22070;50.922;5.430;2022-08-21T15:59:47;3.05;;;1.30;;
36001;SDS011;22070;50.922;5.430;2022-08-21T16:02:17;4.15;;;1.20;;
36001;SDS011;22070;50.922;5.430;2022-08-21T16:04:50;7.90;;;1.50;;
36001;SDS011;22070;50.922;5.430;2022-08-21T16:07:16;5.82;;;1.50;;
36001;SDS011;22070;50.922;5.430;2022-08-21T16:09:42;8.10;;;1.30;;
36001;SDS011;22070;50.922;5.430;2022-08-21T16:12:09;2.90;;;1.00;;
36001;SDS011;22070;50.922;5.430;2022-08-21T16:14:41;5.50;;;1.60;;
36001;SDS011;22070;50.922;5.430;2022-08-21T16:17:06;4.53;;;1.53;;
36001;SDS011;22070;50.922;5.430;2022-08-21T16:19:32;5.57;;;1.50;;
36001;SDS011;22070;50.922;5.430;2022-08-21T16:21:59;3.53;;;1.45;;
36001;SDS011;22070;50.922;5.430;2022-08-21T16:24:25;4.97;;;1.58;;
36001;SDS011;22070;50.922;5.430;2022-08-21T16:26:51;4.87;;;1.60;;